Time,TemperatureF,DewpointF,PressureIn,WindDirection,WindDirectionDegrees,WindSpeedMPH,WindSpeedGustMPH,Humidity,HourlyPrecipIn,Conditions,Clouds,dailyrainin,SolarRadiationWatts/m^2,SoftwareType,DateUTC
2013-09-01 00:03:00,57.0,56.0,-100.00,ESE,103,0.0,3.0,98,0.00,,,0.00,0.000000,,2013-09-01 04:03:00,
2013-09-01 00:25:00,57.0,56.0,-100.00,ESE,103,0.0,3.0,98,0.00,,,0.00,0.000000,,2013-09-01 04:25:00,
2013-09-01 00:34:00,57.0,56.0,-100.00,ESE,103,0.0,3.0,98,0.00,,,0.00,0.000000,,2013-09-01 04:34:00,
2013-09-01 00:43:00,57.0,56.0,-100.00,ESE,103,0.0,3.0,98,0.00,,,0.00,0.000000,,2013-09-01 04:43:00,
2013-09-01 00:54:00,57.0,56.0,-100.00,ESE,103,0.0,3.0,98,0.00,,,0.00,0.000000,,2013-09-01 04:54:00,
2013-09-01 01:23:00,58.0,58.0,-100.00,South,184,4.0,5.0,99,0.00,,,0.00,0.000000,,2013-09-01 05:23:00,
2013-09-01 01:34:00,58.0,58.0,-100.00,South,184,4.0,5.0,99,0.00,,,0.00,0.000000,,2013-09-01 05:34:00,
2013-09-01 01:43:00,58.0,58.0,-100.00,South,184,4.0,5.0,99,0.00,,,0.00,0.000000,,2013-09-01 05:43:00,
2013-09-01 01:52:00,58.0,58.0,-100.00,South,184,4.0,5.0,99,0.00,,,0.00,0.000000,,2013-09-01 05:52:00,
2013-09-01 02:02:00,58.0,58.0,-100.00,South,184,4.0,5.0,99,0.00,,,0.00,0.000000,,2013-09-01 06:02:00,
2013-09-01 02:42:00,61.0,61.0,-100.00,NE,55,0.0,5.0,99,0.00,,,0.00,0.000000,,2013-09-01 06:42:00,
2013-09-01 02:52:00,61.0,61.0,-100.00,NE,55,0.0,5.0,99,0.00,,,0.00,0.000000,,2013-09-01 06:52:00,
2013-09-01 03:02:00,61.0,61.0,-100.00,NE,55,0.0,5.0,99,0.00,,,0.00,0.000000,,2013-09-01 07:02:00,
2013-09-01 03:22:00,61.0,61.0,-100.00,SW,217,1.0,4.0,99,0.00,,,0.00,0.000000,,2013-09-01 07:22:00,
2013-09-01 03:32:00,61.0,61.0,-100.00,SW,217,1.0,4.0,99,0.00,,,0.00,0.000000,,2013-09-01 07:32:00,
2013-09-01 03:42:00,61.0,61.0,-100.00,SW,217,1.0,4.0,99,0.00,,,0.00,0.000000,,2013-09-01 07:42:00,
2013-09-01 03:52:00,61.0,61.0,-100.00,SW,217,1.0,4.0,99,0.00,,,0.00,0.000000,,2013-09-01 07:52:00,
2013-09-01 04:02:00,61.0,61.0,-100.00,SW,217,1.0,4.0,99,0.00,,,0.00,0.000000,,2013-09-01 08:02:00,
2013-09-01 04:22:00,61.0,61.0,-100.00,SSW,209,2.0,5.0,99,0.00,,,0.00,0.000000,,2013-09-01 08:22:00,
2013-09-01 04:32:00,61.0,61.0,-100.00,SSW,209,2.0,5.0,99,0.00,,,0.00,0.000000,,2013-09-01 08:32:00,
2013-09-01 04:43:00,61.0,61.0,-100.00,SSW,209,2.0,5.0,99,0.00,,,0.00,0.000000,,2013-09-01 08:43:00,
2013-09-01 04:52:00,61.0,61.0,-100.00,SSW,209,2.0,5.0,99,0.00,,,0.00,0.000000,,2013-09-01 08:52:00,
2013-09-01 05:02:00,61.0,61.0,-100.00,SSW,209,2.0,5.0,99,0.00,,,0.00,0.000000,,2013-09-01 09:02:00,
2013-09-01 05:03:00,63.0,63.0,-100.00,SSE,163,3.0,6.0,99,0.00,,,0.00,0.000000,,2013-09-01 09:03:00,
2013-09-01 05:22:00,63.0,63.0,-100.00,SSE,163,3.0,6.0,99,0.00,,,0.00,0.000000,,2013-09-01 09:22:00,
2013-09-01 05:34:00,63.0,63.0,-100.00,SSE,163,3.0,6.0,99,0.00,,,0.00,0.000000,,2013-09-01 09:34:00,
2013-09-01 05:43:00,63.0,63.0,-100.00,SSE,163,3.0,6.0,99,0.00,,,0.00,0.000000,,2013-09-01 09:43:00,
2013-09-01 05:53:00,63.0,63.0,-100.00,SSE,163,3.0,6.0,99,0.00,,,0.00,0.000000,,2013-09-01 09:53:00,
2013-09-01 06:23:00,63.0,63.0,-100.00,SSW,195,4.0,7.0,99,0.00,,,0.00,0.000000,,2013-09-01 10:23:00,
2013-09-01 06:33:00,63.0,63.0,-100.00,SSW,195,4.0,7.0,99,0.00,,,0.00,0.000000,,2013-09-01 10:33:00,
2013-09-01 06:42:00,63.0,63.0,-100.00,SSW,195,4.0,7.0,99,0.00,,,0.00,0.000000,,2013-09-01 10:42:00,
2013-09-01 06:53:00,63.0,63.0,-100.00,SSW,195,4.0,7.0,99,0.00,,,0.00,0.000000,,2013-09-01 10:53:00,
2013-09-01 07:02:00,63.0,63.0,-100.00,SSW,195,4.0,7.0,99,0.00,,,0.00,0.000000,,2013-09-01 11:02:00,
2013-09-01 07:22:00,65.0,65.0,-100.00,WSW,244,4.0,7.0,100,0.00,,,0.00,0.000000,,2013-09-01 11:22:00,
2013-09-01 07:32:00,65.0,65.0,-100.00,WSW,244,4.0,7.0,100,0.00,,,0.00,0.000000,,2013-09-01 11:32:00,
2013-09-01 07:42:00,65.0,65.0,-100.00,WSW,244,4.0,7.0,100,0.00,,,0.00,0.000000,,2013-09-01 11:42:00,
2013-09-01 07:52:00,65.0,65.0,-100.00,WSW,244,4.0,7.0,100,0.00,,,0.00,0.000000,,2013-09-01 11:52:00,
2013-09-01 08:01:00,65.0,65.0,-100.00,WSW,244,4.0,7.0,100,0.00,,,0.00,0.000000,,2013-09-01 12:01:00,
2013-09-01 08:22:00,66.0,66.0,-100.00,SW,223,7.0,12.0,100,0.00,,,0.00,11.000000,,2013-09-01 12:22:00,
2013-09-01 08:32:00,66.0,66.0,-100.00,SW,223,7.0,12.0,100,0.00,,,0.00,11.000000,,2013-09-01 12:32:00,
2013-09-01 08:42:00,66.0,66.0,-100.00,SW,223,7.0,12.0,100,0.00,,,0.00,11.000000,,2013-09-01 12:42:00,
2013-09-01 08:52:00,66.0,66.0,-100.00,SW,223,7.0,12.0,100,0.00,,,0.00,11.000000,,2013-09-01 12:52:00,
2013-09-01 09:02:00,66.0,66.0,-100.00,SW,223,7.0,12.0,100,0.00,,,0.00,11.000000,,2013-09-01 13:02:00,
2013-09-01 09:42:00,66.0,65.0,-100.00,South,177,5.0,12.0,96,0.01,,,0.01,30.000000,,2013-09-01 13:42:00,
2013-09-01 09:52:00,66.0,65.0,-100.00,South,177,5.0,12.0,96,0.01,,,0.01,30.000000,,2013-09-01 13:52:00,
2013-09-01 10:02:00,66.0,65.0,-100.00,South,177,5.0,12.0,96,0.01,,,0.01,30.000000,,2013-09-01 14:02:00,
2013-09-01 10:22:00,67.0,66.0,-100.00,SSE,154,7.0,10.0,95,0.00,,,0.01,105.000000,,2013-09-01 14:22:00,
2013-09-01 10:32:00,67.0,66.0,-100.00,SSE,154,7.0,10.0,95,0.00,,,0.01,105.000000,,2013-09-01 14:32:00,
2013-09-01 10:42:00,67.0,66.0,-100.00,SSE,154,7.0,10.0,95,0.00,,,0.01,105.000000,,2013-09-01 14:42:00,
2013-09-01 10:52:00,67.0,66.0,-100.00,SSE,154,7.0,10.0,95,0.00,,,0.01,105.000000,,2013-09-01 14:52:00,
2013-09-01 11:02:00,67.0,66.0,-100.00,SSE,154,7.0,10.0,95,0.00,,,0.01,105.000000,,2013-09-01 15:02:00,
2013-09-01 11:03:00,68.0,66.0,-100.00,SSW,208,7.0,13.0,93,0.00,,,0.01,158.000000,,2013-09-01 15:03:00,
2013-09-01 11:23:00,68.0,66.0,-100.00,SSW,208,7.0,13.0,93,0.00,,,0.01,158.000000,,2013-09-01 15:23:00,
2013-09-01 11:34:00,68.0,66.0,-100.00,SSW,208,7.0,13.0,93,0.00,,,0.01,158.000000,,2013-09-01 15:34:00,
2013-09-01 11:45:00,68.0,66.0,-100.00,SSW,208,7.0,13.0,93,0.00,,,0.01,158.000000,,2013-09-01 15:45:00,
2013-09-01 11:55:00,68.0,66.0,-100.00,SSW,208,7.0,13.0,93,0.00,,,0.01,158.000000,,2013-09-01 15:55:00,
2013-09-01 12:03:00,67.0,66.0,-100.00,South,184,4.0,12.0,98,0.50,,,0.51,9.000000,,2013-09-01 16:03:00,
2013-09-01 12:43:00,67.0,66.0,-100.00,South,184,4.0,12.0,98,0.50,,,0.51,9.000000,,2013-09-01 16:43:00,
2013-09-01 12:53:00,67.0,66.0,-100.00,South,184,4.0,12.0,98,0.50,,,0.51,9.000000,,2013-09-01 16:53:00,
2013-09-01 13:42:00,70.0,69.0,-100.00,SSW,197,7.0,12.0,97,0.02,,,0.53,214.000000,,2013-09-01 17:42:00,
2013-09-01 13:52:00,70.0,69.0,-100.00,SSW,197,7.0,12.0,97,0.02,,,0.53,214.000000,,2013-09-01 17:52:00,
2013-09-01 14:02:00,70.0,69.0,-100.00,SSW,197,7.0,12.0,97,0.02,,,0.53,214.000000,,2013-09-01 18:02:00,
2013-09-01 14:22:00,71.0,66.0,-100.00,SSW,210,9.0,15.0,83,0.00,,,0.53,674.000000,,2013-09-01 18:22:00,
2013-09-01 14:32:00,71.0,66.0,-100.00,SSW,210,9.0,15.0,83,0.00,,,0.53,674.000000,,2013-09-01 18:32:00,
2013-09-01 14:42:00,71.0,66.0,-100.00,SSW,210,9.0,15.0,83,0.00,,,0.53,674.000000,,2013-09-01 18:42:00,
2013-09-01 14:52:00,71.0,66.0,-100.00,SSW,210,9.0,15.0,83,0.00,,,0.53,674.000000,,2013-09-01 18:52:00,
2013-09-01 15:02:00,71.0,66.0,-100.00,SSW,210,9.0,15.0,83,0.00,,,0.53,674.000000,,2013-09-01 19:02:00,
2013-09-01 15:42:00,75.0,69.0,-100.00,SSW,196,11.0,16.0,82,0.00,,,0.53,498.000000,,2013-09-01 19:42:00,
2013-09-01 15:52:00,75.0,69.0,-100.00,SSW,196,11.0,16.0,82,0.00,,,0.53,498.000000,,2013-09-01 19:52:00,
2013-09-01 16:02:00,75.0,69.0,-100.00,SSW,196,11.0,16.0,82,0.00,,,0.53,498.000000,,2013-09-01 20:02:00,
2013-09-01 16:22:00,74.0,65.0,-100.00,SSW,212,8.0,19.0,74,0.00,,,0.53,706.000000,,2013-09-01 20:22:00,
2013-09-01 16:32:00,74.0,65.0,-100.00,SSW,212,8.0,19.0,74,0.00,,,0.53,706.000000,,2013-09-01 20:32:00,
2013-09-01 16:42:00,74.0,65.0,-100.00,SSW,212,8.0,19.0,74,0.00,,,0.53,706.000000,,2013-09-01 20:42:00,
2013-09-01 16:52:00,74.0,65.0,-100.00,SSW,212,8.0,19.0,74,0.00,,,0.53,706.000000,,2013-09-01 20:52:00,
2013-09-01 17:02:00,74.0,65.0,-100.00,SSW,212,8.0,19.0,74,0.00,,,0.53,706.000000,,2013-09-01 21:02:00,
2013-09-01 17:03:00,75.0,69.0,-100.00,SSW,201,5.0,14.0,82,0.00,,,0.53,382.000000,,2013-09-01 21:03:00,
2013-09-01 17:22:00,75.0,69.0,-100.00,SSW,201,5.0,14.0,82,0.00,,,0.53,382.000000,,2013-09-01 21:22:00,
2013-09-01 17:34:00,75.0,69.0,-100.00,SSW,201,5.0,14.0,82,0.00,,,0.53,382.000000,,2013-09-01 21:34:00,
2013-09-01 17:44:00,75.0,69.0,-100.00,SSW,201,5.0,14.0,82,0.00,,,0.53,382.000000,,2013-09-01 21:44:00,
2013-09-01 17:55:00,75.0,69.0,-100.00,SSW,201,5.0,14.0,82,0.00,,,0.53,382.000000,,2013-09-01 21:55:00,
2013-09-01 18:03:00,74.0,58.0,-100.00,North,1,10.0,17.0,58,0.00,,,0.53,345.000000,,2013-09-01 22:03:00,
2013-09-01 18:24:00,74.0,58.0,-100.00,North,1,10.0,17.0,58,0.00,,,0.53,345.000000,,2013-09-01 22:24:00,
2013-09-01 18:34:00,74.0,58.0,-100.00,North,1,10.0,17.0,58,0.00,,,0.53,345.000000,,2013-09-01 22:34:00,
2013-09-01 18:43:00,74.0,58.0,-100.00,North,1,10.0,17.0,58,0.00,,,0.53,345.000000,,2013-09-01 22:43:00,
2013-09-01 18:53:00,74.0,58.0,-100.00,North,1,10.0,17.0,58,0.00,,,0.53,345.000000,,2013-09-01 22:53:00,
2013-09-01 19:23:00,66.0,61.0,-100.00,NNE,16,8.0,16.0,83,0.00,,,0.53,127.000000,,2013-09-01 23:23:00,
2013-09-01 19:34:00,66.0,61.0,-100.00,NNE,16,8.0,16.0,83,0.00,,,0.53,127.000000,,2013-09-01 23:34:00,
2013-09-01 19:42:00,66.0,61.0,-100.00,NNE,16,8.0,16.0,83,0.00,,,0.53,127.000000,,2013-09-01 23:42:00,
2013-09-01 19:53:00,66.0,61.0,-100.00,NNE,16,8.0,16.0,83,0.00,,,0.53,127.000000,,2013-09-01 23:53:00,
2013-09-01 20:02:00,66.0,61.0,-100.00,NNE,16,8.0,16.0,83,0.00,,,0.53,127.000000,,2013-09-02 00:02:00,
2013-09-01 20:22:00,62.0,58.0,-100.00,North,4,8.0,17.0,88,0.00,,,0.53,42.000000,,2013-09-02 00:22:00,
2013-09-01 20:33:00,62.0,58.0,-100.00,North,4,8.0,17.0,88,0.00,,,0.53,42.000000,,2013-09-02 00:33:00,
2013-09-01 20:42:00,62.0,58.0,-100.00,North,4,8.0,17.0,88,0.00,,,0.53,42.000000,,2013-09-02 00:42:00,
2013-09-01 20:52:00,62.0,58.0,-100.00,North,4,8.0,17.0,88,0.00,,,0.53,42.000000,,2013-09-02 00:52:00,
2013-09-01 21:02:00,62.0,58.0,-100.00,North,4,8.0,17.0,88,0.00,,,0.53,42.000000,,2013-09-02 01:02:00,
2013-09-01 21:42:00,59.0,55.0,-100.00,North,7,7.0,14.0,87,0.00,,,0.53,7.000000,,2013-09-02 01:42:00,
2013-09-01 21:52:00,59.0,55.0,-100.00,North,7,7.0,14.0,87,0.00,,,0.53,7.000000,,2013-09-02 01:52:00,
2013-09-01 22:02:00,59.0,55.0,-100.00,North,7,7.0,14.0,87,0.00,,,0.53,7.000000,,2013-09-02 02:02:00,
2013-09-01 22:22:00,59.0,54.0,-100.00,North,357,6.0,13.0,85,0.00,,,0.53,0.000000,,2013-09-02 02:22:00,
2013-09-01 22:33:00,59.0,54.0,-100.00,North,357,6.0,13.0,85,0.00,,,0.53,0.000000,,2013-09-02 02:33:00,
2013-09-01 22:42:00,59.0,54.0,-100.00,North,357,6.0,13.0,85,0.00,,,0.53,0.000000,,2013-09-02 02:42:00,
2013-09-01 22:52:00,59.0,54.0,-100.00,North,357,6.0,13.0,85,0.00,,,0.53,0.000000,,2013-09-02 02:52:00,
2013-09-01 23:02:00,59.0,54.0,-100.00,North,357,6.0,13.0,85,0.00,,,0.53,0.000000,,2013-09-02 03:02:00,
2013-09-01 23:03:00,58.0,53.0,-100.00,North,353,6.0,15.0,84,0.00,,,0.53,0.000000,,2013-09-02 03:03:00,
2013-09-01 23:22:00,58.0,53.0,-100.00,North,353,6.0,15.0,84,0.00,,,0.53,0.000000,,2013-09-02 03:22:00,
2013-09-01 23:34:00,58.0,53.0,-100.00,North,353,6.0,15.0,84,0.00,,,0.53,0.000000,,2013-09-02 03:34:00,
2013-09-01 23:44:00,58.0,53.0,-100.00,North,353,6.0,15.0,84,0.00,,,0.53,0.000000,,2013-09-02 03:44:00,
2013-09-01 23:56:00,58.0,53.0,-100.00,North,353,6.0,15.0,84,0.00,,,0.53,0.000000,,2013-09-02 03:56:00,